sensor_id;sensor_type;location;lat;lon;timestamp;P1;durP1;ratioP1;P2;durP2;ratioP2
17253;SDS011;32542;52.832;13.816;2023-01-10T00:01:27;7.38;;;5.25;;
17253;SDS011;32542;52.832;13.816;2023-01-10T00:04:31;7.95;;;4.93;;
17253;SDS011;32542;52.832;13.816;2023-01-10T00:07:34;7.30;;;5.00;;
17253;SDS011;32542;52.832;13.816;2023-01-10T00:10:37;7.57;;;5.10;;
17253;SDS011;32542;52.832;13.816;2023-01-10T00:13:40;7.80;;;5.00;;
17253;SDS011;32542;52.832;13.816;2023-01-10T00:16:43;6.68;;;4.95;;
17253;SDS011;32542;52.832;13.816;2023-01-10T00:19:47;6.50;;;4.68;;
17253;SDS011;32542;52.832;13.816;2023-01-10T00:22:50;8.57;;;5.22;;
17253;SDS011;32542;52.832;13.816;2023-01-10T00:25:53;7.40;;;4.78;;
17253;SDS011;32542;52.832;13.816;2023-01-10T00:28:56;9.13;;;4.63;;
17253;SDS011;32542;52.832;13.816;2023-01-10T00:31:58;5.50;;;4.35;;
17253;SDS011;32542;52.832;13.816;2023-01-10T00:35:03;6.25;;;4.20;;
17253;SDS011;32542;52.832;13.816;2023-01-10T00:38:09;6.10;;;4.40;;
17253;SDS011;32542;52.832;13.816;2023-01-10T00:41:12;7.68;;;5.03;;
17253;SDS011;32542;52.832;13.816;2023-01-10T00:44:29;6.30;;;4.10;;
17253;SDS011;32542;52.832;13.816;2023-01-10T00:47:32;6.15;;;4.18;;
17253;SDS011;32542;52.832;13.816;2023-01-10T00:50:36;6.85;;;4.28;;
17253;SDS011;32542;52.832;13.816;2023-01-10T00:53:39;5.75;;;4.28;;
17253;SDS011;32542;52.832;13.816;2023-01-10T00:56:42;6.75;;;4.40;;
17253;SDS011;32542;52.832;13.816;2023-01-10T00:59:45;6.63;;;4.35;;
17253;SDS011;32542;52.832;13.816;2023-01-10T01:02:47;8.02;;;4.40;;
17253;SDS011;32542;52.832;13.816;2023-01-10T01:05:54;5.82;;;3.97;;
17253;SDS011;32542;52.832;13.816;2023-01-10T01:08:57;7.15;;;4.53;;
17253;SDS011;32542;52.832;13.816;2023-01-10T01:12:00;7.47;;;4.03;;
17253;SDS011;32542;52.832;13.816;2023-01-10T01:15:03;5.70;;;4.15;;
17253;SDS011;32542;52.832;13.816;2023-01-10T01:18:08;8.82;;;4.53;;
17253;SDS011;32542;52.832;13.816;2023-01-10T01:21:14;5.65;;;3.97;;
17253;SDS011;32542;52.832;13.816;2023-01-10T01:24:17;6.45;;;3.97;;
17253;SDS011;32542;52.832;13.816;2023-01-10T01:27:21;7.25;;;4.80;;
17253;SDS011;32542;52.832;13.816;2023-01-10T01:30:24;5.22;;;3.88;;
17253;SDS011;32542;52.832;13.816;2023-01-10T01:33:27;5.40;;;4.10;;
17253;SDS011;32542;52.832;13.816;2023-01-10T01:36:31;8.73;;;4.35;;
17253;SDS011;32542;52.832;13.816;2023-01-10T01:39:34;7.18;;;4.20;;
17253;SDS011;32542;52.832;13.816;2023-01-10T01:42:37;5.38;;;3.90;;
17253;SDS011;32542;52.832;13.816;2023-01-10T01:45:40;6.60;;;3.90;;
17253;SDS011;32542;52.832;13.816;2023-01-10T01:48:42;6.35;;;4.20;;
17253;SDS011;32542;52.832;13.816;2023-01-10T01:51:47;5.30;;;3.70;;
17253;SDS011;32542;52.832;13.816;2023-01-10T01:54:53;5.53;;;3.88;;
17253;SDS011;32542;52.832;13.816;2023-01-10T01:58:00;7.88;;;4.20;;
17253;SDS011;32542;52.832;13.816;2023-01-10T02:01:07;6.22;;;3.90;;
17253;SDS011;32542;52.832;13.816;2023-01-10T02:04:12;5.10;;;3.90;;
17253;SDS011;32542;52.832;13.816;2023-01-10T02:07:21;7.15;;;3.78;;
17253;SDS011;32542;52.832;13.816;2023-01-10T02:10:28;5.70;;;3.90;;
17253;SDS011;32542;52.832;13.816;2023-01-10T02:13:38;6.18;;;4.00;;
17253;SDS011;32542;52.832;13.816;2023-01-10T02:16:43;7.75;;;4.03;;
17253;SDS011;32542;52.832;13.816;2023-01-10T02:19:49;5.15;;;3.90;;
17253;SDS011;32542;52.832;13.816;2023-01-10T02:23:04;6.00;;;4.07;;
17253;SDS011;32542;52.832;13.816;2023-01-10T02:30:26;5.45;;;4.25;;
17253;SDS011;32542;52.832;13.816;2023-01-10T02:33:48;5.40;;;3.70;;
17253;SDS011;32542;52.832;13.816;2023-01-10T02:37:01;5.32;;;3.50;;
17253;SDS011;32542;52.832;13.816;2023-01-10T02:40:12;5.15;;;3.38;;
17253;SDS011;32542;52.832;13.816;2023-01-10T02:43:21;5.60;;;3.50;;
17253;SDS011;32542;52.832;13.816;2023-01-10T02:46:28;4.43;;;3.78;;
17253;SDS011;32542;52.832;13.816;2023-01-10T02:49:41;4.63;;;3.30;;
17253;SDS011;32542;52.832;13.816;2023-01-10T02:52:44;6.72;;;3.78;;
17253;SDS011;32542;52.832;13.816;2023-01-10T02:55:54;5.57;;;3.63;;
17253;SDS011;32542;52.832;13.816;2023-01-10T03:03:04;4.80;;;3.40;;
17253;SDS011;32542;52.832;13.816;2023-01-10T03:06:19;6.03;;;3.75;;
17253;SDS011;32542;52.832;13.816;2023-01-10T03:09:28;5.35;;;3.42;;
17253;SDS011;32542;52.832;13.816;2023-01-10T03:12:36;5.03;;;3.45;;
17253;SDS011;32542;52.832;13.816;2023-01-10T03:15:44;4.97;;;3.47;;
17253;SDS011;32542;52.832;13.816;2023-01-10T03:18:50;5.10;;;3.85;;
17253;SDS011;32542;52.832;13.816;2023-01-10T03:21:59;5.70;;;3.90;;
17253;SDS011;32542;52.832;13.816;2023-01-10T03:25:05;4.18;;;3.22;;
17253;SDS011;32542;52.832;13.816;2023-01-10T03:28:12;4.72;;;3.45;;
17253;SDS011;32542;52.832;13.816;2023-01-10T03:31:20;4.93;;;3.75;;
17253;SDS011;32542;52.832;13.816;2023-01-10T03:34:28;4.68;;;3.65;;
17253;SDS011;32542;52.832;13.816;2023-01-10T03:37:33;5.40;;;3.70;;
17253;SDS011;32542;52.832;13.816;2023-01-10T03:40:42;5.03;;;3.65;;
17253;SDS011;32542;52.832;13.816;2023-01-10T03:43:50;5.20;;;3.83;;
17253;SDS011;32542;52.832;13.816;2023-01-10T03:47:18;5.18;;;3.30;;
17253;SDS011;32542;52.832;13.816;2023-01-10T03:50:27;4.25;;;3.40;;
17253;SDS011;32542;52.832;13.816;2023-01-10T03:53:33;4.95;;;3.50;;
17253;SDS011;32542;52.832;13.816;2023-01-10T03:56:45;5.25;;;3.45;;
17253;SDS011;32542;52.832;13.816;2023-01-10T03:59:51;5.22;;;3.70;;
17253;SDS011;32542;52.832;13.816;2023-01-10T04:02:57;4.40;;;3.38;;
17253;SDS011;32542;52.832;13.816;2023-01-10T04:05:59;4.95;;;3.47;;
17253;SDS011;32542;52.832;13.816;2023-01-10T04:09:04;4.45;;;3.47;;
17253;SDS011;32542;52.832;13.816;2023-01-10T04:12:06;4.03;;;3.17;;
17253;SDS011;32542;52.832;13.816;2023-01-10T04:15:10;4.78;;;3.65;;
17253;SDS011;32542;52.832;13.816;2023-01-10T04:18:13;4.10;;;3.30;;
17253;SDS011;32542;52.832;13.816;2023-01-10T04:21:16;5.20;;;3.50;;
17253;SDS011;32542;52.832;13.816;2023-01-10T04:24:20;3.33;;;2.92;;
17253;SDS011;32542;52.832;13.816;2023-01-10T04:27:23;3.97;;;2.95;;
17253;SDS011;32542;52.832;13.816;2023-01-10T04:30:27;4.25;;;3.42;;
17253;SDS011;32542;52.832;13.816;2023-01-10T04:33:30;4.25;;;2.92;;
17253;SDS011;32542;52.832;13.816;2023-01-10T04:36:33;4.32;;;2.90;;
17253;SDS011;32542;52.832;13.816;2023-01-10T04:39:38;3.88;;;3.17;;
17253;SDS011;32542;52.832;13.816;2023-01-10T04:42:41;4.03;;;3.00;;
17253;SDS011;32542;52.832;13.816;2023-01-10T04:45:44;3.72;;;3.15;;
17253;SDS011;32542;52.832;13.816;2023-01-10T04:48:47;4.25;;;2.90;;
17253;SDS011;32542;52.832;13.816;2023-01-10T04:51:50;4.47;;;3.47;;
17253;SDS011;32542;52.832;13.816;2023-01-10T04:54:54;4.57;;;3.05;;
17253;SDS011;32542;52.832;13.816;2023-01-10T04:57:57;4.13;;;2.90;;
17253;SDS011;32542;52.832;13.816;2023-01-10T05:01:05;4.53;;;3.45;;
17253;SDS011;32542;52.832;13.816;2023-01-10T05:04:09;5.10;;;3.10;;
17253;SDS011;32542;52.832;13.816;2023-01-10T05:07:12;4.43;;;3.20;;
17253;SDS011;32542;52.832;13.816;2023-01-10T05:10:16;3.40;;;2.78;;
17253;SDS011;32542;52.832;13.816;2023-01-10T05:13:19;3.72;;;2.75;;
17253;SDS011;32542;52.832;13.816;2023-01-10T05:16:22;4.25;;;2.88;;
17253;SDS011;32542;52.832;13.816;2023-01-10T05:19:25;3.83;;;2.80;;
17253;SDS011;32542;52.832;13.816;2023-01-10T05:22:28;3.25;;;2.70;;
17253;SDS011;32542;52.832;13.816;2023-01-10T05:25:33;3.85;;;2.70;;
17253;SDS011;32542;52.832;13.816;2023-01-10T05:28:35;3.65;;;2.88;;
17253;SDS011;32542;52.832;13.816;2023-01-10T05:31:39;3.95;;;3.10;;
17253;SDS011;32542;52.832;13.816;2023-01-10T05:34:42;3.58;;;2.75;;
17253;SDS011;32542;52.832;13.816;2023-01-10T05:37:45;4.30;;;2.90;;
17253;SDS011;32542;52.832;13.816;2023-01-10T05:40:53;3.47;;;2.85;;
17253;SDS011;32542;52.832;13.816;2023-01-10T05:43:59;3.58;;;2.88;;
17253;SDS011;32542;52.832;13.816;2023-01-10T05:47:02;3.38;;;2.60;;
17253;SDS011;32542;52.832;13.816;2023-01-10T05:50:05;4.45;;;2.70;;
17253;SDS011;32542;52.832;13.816;2023-01-10T05:53:09;4.28;;;2.83;;
17253;SDS011;32542;52.832;13.816;2023-01-10T05:56:13;3.55;;;2.50;;
17253;SDS011;32542;52.832;13.816;2023-01-10T05:59:16;3.58;;;2.70;;
17253;SDS011;32542;52.832;13.816;2023-01-10T06:02:28;3.47;;;2.65;;
17253;SDS011;32542;52.832;13.816;2023-01-10T06:05:31;3.45;;;2.55;;
17253;SDS011;32542;52.832;13.816;2023-01-10T06:08:35;3.25;;;2.70;;
17253;SDS011;32542;52.832;13.816;2023-01-10T06:11:39;3.28;;;2.60;;
17253;SDS011;32542;52.832;13.816;2023-01-10T06:14:42;4.75;;;3.10;;
17253;SDS011;32542;52.832;13.816;2023-01-10T06:17:45;3.90;;;2.90;;
17253;SDS011;32542;52.832;13.816;2023-01-10T06:20:48;3.40;;;2.60;;
17253;SDS011;32542;52.832;13.816;2023-01-10T06:23:51;4.22;;;2.50;;
17253;SDS011;32542;52.832;13.816;2023-01-10T06:26:56;3.78;;;2.50;;
17253;SDS011;32542;52.832;13.816;2023-01-10T06:29:58;2.90;;;2.45;;
17253;SDS011;32542;52.832;13.816;2023-01-10T06:33:02;4.18;;;2.65;;
17253;SDS011;32542;52.832;13.816;2023-01-10T06:36:05;3.47;;;2.50;;
17253;SDS011;32542;52.832;13.816;2023-01-10T06:39:09;2.88;;;2.40;;
17253;SDS011;32542;52.832;13.816;2023-01-10T06:42:13;3.78;;;2.78;;
17253;SDS011;32542;52.832;13.816;2023-01-10T06:45:16;4.40;;;2.88;;
17253;SDS011;32542;52.832;13.816;2023-01-10T06:48:19;3.75;;;2.83;;
17253;SDS011;32542;52.832;13.816;2023-01-10T06:51:22;3.10;;;2.67;;
17253;SDS011;32542;52.832;13.816;2023-01-10T06:54:25;4.55;;;2.30;;
17253;SDS011;32542;52.832;13.816;2023-01-10T06:57:29;3.90;;;2.35;;
17253;SDS011;32542;52.832;13.816;2023-01-10T07:00:35;3.47;;;2.75;;
17253;SDS011;32542;52.832;13.816;2023-01-10T07:03:38;3.95;;;2.35;;
17253;SDS011;32542;52.832;13.816;2023-01-10T07:06:41;4.45;;;2.92;;
17253;SDS011;32542;52.832;13.816;2023-01-10T07:09:44;3.97;;;2.55;;
17253;SDS011;32542;52.832;13.816;2023-01-10T07:12:49;2.70;;;2.33;;
17253;SDS011;32542;52.832;13.816;2023-01-10T07:15:52;3.17;;;2.53;;
17253;SDS011;32542;52.832;13.816;2023-01-10T07:19:03;3.20;;;2.72;;
17253;SDS011;32542;52.832;13.816;2023-01-10T07:22:06;4.57;;;2.67;;
17253;SDS011;32542;52.832;13.816;2023-01-10T07:25:08;4.15;;;2.42;;
17253;SDS011;32542;52.832;13.816;2023-01-10T07:28:13;2.95;;;2.50;;
17253;SDS011;32542;52.832;13.816;2023-01-10T07:31:17;3.78;;;2.50;;
17253;SDS011;32542;52.832;13.816;2023-01-10T07:34:20;3.15;;;2.50;;
17253;SDS011;32542;52.832;13.816;2023-01-10T07:37:23;4.57;;;2.45;;
17253;SDS011;32542;52.832;13.816;2023-01-10T07:40:26;2.85;;;2.35;;
17253;SDS011;32542;52.832;13.816;2023-01-10T07:43:30;3.50;;;2.40;;
17253;SDS011;32542;52.832;13.816;2023-01-10T07:46:34;3.38;;;2.22;;
17253;SDS011;32542;52.832;13.816;2023-01-10T07:49:37;2.55;;;2.10;;
17253;SDS011;32542;52.832;13.816;2023-01-10T07:52:39;2.97;;;2.17;;
17253;SDS011;32542;52.832;13.816;2023-01-10T07:55:42;2.90;;;2.30;;
17253;SDS011;32542;52.832;13.816;2023-01-10T07:58:47;2.90;;;2.10;;
17253;SDS011;32542;52.832;13.816;2023-01-10T08:01:50;3.00;;;2.17;;
17253;SDS011;32542;52.832;13.816;2023-01-10T08:04:54;3.33;;;2.30;;
17253;SDS011;32542;52.832;13.816;2023-01-10T08:08:00;3.67;;;2.60;;
17253;SDS011;32542;52.832;13.816;2023-01-10T08:11:05;4.88;;;2.83;;
17253;SDS011;32542;52.832;13.816;2023-01-10T08:14:10;3.33;;;2.30;;
17253;SDS011;32542;52.832;13.816;2023-01-10T08:17:13;3.00;;;2.28;;
17253;SDS011;32542;52.832;13.816;2023-01-10T08:20:16;2.50;;;2.10;;
17253;SDS011;32542;52.832;13.816;2023-01-10T08:23:19;4.07;;;2.45;;
17253;SDS011;32542;52.832;13.816;2023-01-10T08:26:22;3.45;;;2.38;;
17253;SDS011;32542;52.832;13.816;2023-01-10T08:29:26;3.15;;;2.17;;
17253;SDS011;32542;52.832;13.816;2023-01-10T08:32:29;3.33;;;2.47;;
17253;SDS011;32542;52.832;13.816;2023-01-10T08:35:35;2.53;;;2.28;;
17253;SDS011;32542;52.832;13.816;2023-01-10T08:38:38;2.95;;;2.15;;
17253;SDS011;32542;52.832;13.816;2023-01-10T08:41:41;2.92;;;2.15;;
17253;SDS011;32542;52.832;13.816;2023-01-10T08:44:45;2.38;;;1.83;;
17253;SDS011;32542;52.832;13.816;2023-01-10T08:47:48;2.45;;;2.13;;
17253;SDS011;32542;52.832;13.816;2023-01-10T08:50:51;2.80;;;2.30;;
17253;SDS011;32542;52.832;13.816;2023-01-10T08:53:54;2.40;;;2.20;;
17253;SDS011;32542;52.832;13.816;2023-01-10T08:56:57;7.60;;;2.38;;
17253;SDS011;32542;52.832;13.816;2023-01-10T09:00:02;11.82;;;2.38;;
17253;SDS011;32542;52.832;13.816;2023-01-10T09:03:06;12.90;;;2.47;;
17253;SDS011;32542;52.832;13.816;2023-01-10T09:06:09;5.68;;;2.13;;
17253;SDS011;32542;52.832;13.816;2023-01-10T09:09:12;12.63;;;2.60;;
17253;SDS011;32542;52.832;13.816;2023-01-10T09:12:15;8.55;;;2.47;;
17253;SDS011;32542;52.832;13.816;2023-01-10T09:15:37;10.13;;;2.33;;
17253;SDS011;32542;52.832;13.816;2023-01-10T09:18:40;6.63;;;2.20;;
17253;SDS011;32542;52.832;13.816;2023-01-10T09:21:43;4.82;;;2.28;;
17253;SDS011;32542;52.832;13.816;2023-01-10T09:24:46;7.10;;;2.40;;
17253;SDS011;32542;52.832;13.816;2023-01-10T09:27:54;9.38;;;2.55;;
17253;SDS011;32542;52.832;13.816;2023-01-10T09:30:59;14.45;;;2.30;;
17253;SDS011;32542;52.832;13.816;2023-01-10T09:34:04;10.50;;;2.58;;
17253;SDS011;32542;52.832;13.816;2023-01-10T09:37:07;11.07;;;2.83;;
17253;SDS011;32542;52.832;13.816;2023-01-10T09:40:12;10.80;;;2.83;;
17253;SDS011;32542;52.832;13.816;2023-01-10T09:43:19;8.07;;;2.60;;
17253;SDS011;32542;52.832;13.816;2023-01-10T09:46:33;12.02;;;2.70;;
17253;SDS011;32542;52.832;13.816;2023-01-10T09:49:45;9.23;;;2.55;;
17253;SDS011;32542;52.832;13.816;2023-01-10T09:52:57;16.60;;;2.65;;
17253;SDS011;32542;52.832;13.816;2023-01-10T09:56:07;12.77;;;2.13;;
17253;SDS011;32542;52.832;13.816;2023-01-10T09:59:11;8.65;;;2.17;;
17253;SDS011;32542;52.832;13.816;2023-01-10T10:02:25;6.47;;;2.55;;
17253;SDS011;32542;52.832;13.816;2023-01-10T10:05:30;7.60;;;2.50;;
17253;SDS011;32542;52.832;13.816;2023-01-10T10:08:33;13.50;;;2.60;;
17253;SDS011;32542;52.832;13.816;2023-01-10T10:11:48;6.65;;;2.53;;
17253;SDS011;32542;52.832;13.816;2023-01-10T10:15:06;5.75;;;2.80;;
17253;SDS011;32542;52.832;13.816;2023-01-10T10:18:20;11.50;;;3.47;;
17253;SDS011;32542;52.832;13.816;2023-01-10T10:21:34;7.35;;;2.20;;
17253;SDS011;32542;52.832;13.816;2023-01-10T10:24:49;5.32;;;2.50;;
17253;SDS011;32542;52.832;13.816;2023-01-10T10:28:05;6.30;;;2.35;;
17253;SDS011;32542;52.832;13.816;2023-01-10T10:31:20;7.38;;;2.10;;
17253;SDS011;32542;52.832;13.816;2023-01-10T10:34:38;6.82;;;3.10;;
17253;SDS011;32542;52.832;13.816;2023-01-10T10:37:45;6.57;;;2.28;;
17253;SDS011;32542;52.832;13.816;2023-01-10T10:40:52;6.13;;;2.30;;
17253;SDS011;32542;52.832;13.816;2023-01-10T10:43:56;3.90;;;2.40;;
17253;SDS011;32542;52.832;13.816;2023-01-10T10:47:07;8.32;;;2.40;;
17253;SDS011;32542;52.832;13.816;2023-01-10T10:50:20;8.35;;;2.78;;
17253;SDS011;32542;52.832;13.816;2023-01-10T10:53:30;6.53;;;2.63;;
17253;SDS011;32542;52.832;13.816;2023-01-10T10:56:34;5.75;;;2.25;;
17253;SDS011;32542;52.832;13.816;2023-01-10T10:59:37;5.43;;;2.70;;
17253;SDS011;32542;52.832;13.816;2023-01-10T11:02:40;5.53;;;2.50;;
17253;SDS011;32542;52.832;13.816;2023-01-10T11:05:49;10.23;;;2.70;;
17253;SDS011;32542;52.832;13.816;2023-01-10T11:08:54;5.63;;;3.03;;
17253;SDS011;32542;52.832;13.816;2023-01-10T11:11:58;7.78;;;2.60;;
17253;SDS011;32542;52.832;13.816;2023-01-10T11:15:02;9.73;;;2.70;;
17253;SDS011;32542;52.832;13.816;2023-01-10T11:18:06;4.82;;;2.83;;
17253;SDS011;32542;52.832;13.816;2023-01-10T11:21:14;6.10;;;3.10;;
17253;SDS011;32542;52.832;13.816;2023-01-10T11:24:26;7.50;;;2.80;;
17253;SDS011;32542;52.832;13.816;2023-01-10T11:27:32;8.05;;;2.85;;
17253;SDS011;32542;52.832;13.816;2023-01-10T11:30:45;7.93;;;2.60;;
17253;SDS011;32542;52.832;13.816;2023-01-10T11:33:50;8.50;;;2.70;;
17253;SDS011;32542;52.832;13.816;2023-01-10T11:36:55;8.30;;;2.45;;
17253;SDS011;32542;52.832;13.816;2023-01-10T11:40:12;7.03;;;2.85;;
17253;SDS011;32542;52.832;13.816;2023-01-10T11:43:23;5.10;;;2.45;;
17253;SDS011;32542;52.832;13.816;2023-01-10T11:46:28;13.43;;;2.78;;
17253;SDS011;32542;52.832;13.816;2023-01-10T11:49:31;10.45;;;2.55;;
17253;SDS011;32542;52.832;13.816;2023-01-10T11:52:42;5.43;;;2.60;;
17253;SDS011;32542;52.832;13.816;2023-01-10T11:55:47;9.02;;;2.67;;
17253;SDS011;32542;52.832;13.816;2023-01-10T11:58:50;8.70;;;2.50;;
17253;SDS011;32542;52.832;13.816;2023-01-10T12:01:58;4.55;;;2.55;;
17253;SDS011;32542;52.832;13.816;2023-01-10T12:05:05;4.20;;;2.28;;
17253;SDS011;32542;52.832;13.816;2023-01-10T12:08:17;3.90;;;2.22;;
17253;SDS011;32542;52.832;13.816;2023-01-10T12:11:27;5.28;;;2.40;;
17253;SDS011;32542;52.832;13.816;2023-01-10T12:14:32;7.72;;;2.47;;
17253;SDS011;32542;52.832;13.816;2023-01-10T12:17:36;11.10;;;3.05;;
17253;SDS011;32542;52.832;13.816;2023-01-10T12:20:40;4.75;;;2.30;;
17253;SDS011;32542;52.832;13.816;2023-01-10T12:23:49;5.07;;;2.78;;
17253;SDS011;32542;52.832;13.816;2023-01-10T12:26:55;7.15;;;2.80;;
17253;SDS011;32542;52.832;13.816;2023-01-10T12:30:00;6.85;;;2.58;;
17253;SDS011;32542;52.832;13.816;2023-01-10T12:33:10;6.18;;;2.83;;
17253;SDS011;32542;52.832;13.816;2023-01-10T12:36:21;3.70;;;2.35;;
17253;SDS011;32542;52.832;13.816;2023-01-10T12:39:33;8.30;;;2.40;;
17253;SDS011;32542;52.832;13.816;2023-01-10T12:42:43;4.65;;;2.38;;
17253;SDS011;32542;52.832;13.816;2023-01-10T12:46:12;5.57;;;2.80;;
17253;SDS011;32542;52.832;13.816;2023-01-10T12:49:42;4.45;;;2.58;;
17253;SDS011;32542;52.832;13.816;2023-01-10T12:52:50;7.13;;;3.00;;
17253;SDS011;32542;52.832;13.816;2023-01-10T12:55:59;7.20;;;2.60;;
17253;SDS011;32542;52.832;13.816;2023-01-10T12:59:10;5.25;;;2.50;;
17253;SDS011;32542;52.832;13.816;2023-01-10T13:02:37;4.43;;;2.35;;
17253;SDS011;32542;52.832;13.816;2023-01-10T13:05:44;4.22;;;2.38;;
17253;SDS011;32542;52.832;13.816;2023-01-10T13:08:50;6.22;;;2.47;;
17253;SDS011;32542;52.832;13.816;2023-01-10T13:11:55;5.35;;;2.70;;
17253;SDS011;32542;52.832;13.816;2023-01-10T13:15:04;5.60;;;2.03;;
17253;SDS011;32542;52.832;13.816;2023-01-10T13:18:14;5.82;;;2.85;;
17253;SDS011;32542;52.832;13.816;2023-01-10T13:21:21;4.70;;;2.47;;
17253;SDS011;32542;52.832;13.816;2023-01-10T13:24:24;4.35;;;2.38;;
17253;SDS011;32542;52.832;13.816;2023-01-10T13:27:30;4.57;;;2.58;;
17253;SDS011;32542;52.832;13.816;2023-01-10T13:30:34;5.05;;;2.20;;
17253;SDS011;32542;52.832;13.816;2023-01-10T13:33:48;4.57;;;2.28;;
17253;SDS011;32542;52.832;13.816;2023-01-10T13:36:55;5.05;;;2.08;;
17253;SDS011;32542;52.832;13.816;2023-01-10T13:40:00;3.58;;;2.10;;
17253;SDS011;32542;52.832;13.816;2023-01-10T13:46:42;5.18;;;2.28;;
17253;SDS011;32542;52.832;13.816;2023-01-10T13:49:47;6.25;;;2.55;;
17253;SDS011;32542;52.832;13.816;2023-01-10T13:52:49;4.43;;;2.20;;
17253;SDS011;32542;52.832;13.816;2023-01-10T13:55:54;4.95;;;2.28;;
17253;SDS011;32542;52.832;13.816;2023-01-10T13:58:58;5.55;;;2.30;;
17253;SDS011;32542;52.832;13.816;2023-01-10T14:02:21;4.80;;;2.38;;
17253;SDS011;32542;52.832;13.816;2023-01-10T14:05:32;5.25;;;2.35;;
17253;SDS011;32542;52.832;13.816;2023-01-10T14:08:35;5.55;;;2.30;;
17253;SDS011;32542;52.832;13.816;2023-01-10T14:11:47;2.92;;;2.30;;
17253;SDS011;32542;52.832;13.816;2023-01-10T14:14:54;4.55;;;2.25;;
17253;SDS011;32542;52.832;13.816;2023-01-10T14:18:02;3.75;;;2.20;;
17253;SDS011;32542;52.832;13.816;2023-01-10T14:21:08;3.38;;;2.20;;
17253;SDS011;32542;52.832;13.816;2023-01-10T14:24:22;7.07;;;2.60;;
17253;SDS011;32542;52.832;13.816;2023-01-10T14:27:36;7.30;;;1.95;;
17253;SDS011;32542;52.832;13.816;2023-01-10T14:30:57;4.28;;;2.03;;
17253;SDS011;32542;52.832;13.816;2023-01-10T14:34:08;5.18;;;2.50;;
17253;SDS011;32542;52.832;13.816;2023-01-10T14:37:14;6.10;;;2.35;;
17253;SDS011;32542;52.832;13.816;2023-01-10T14:40:27;4.40;;;2.08;;
17253;SDS011;32542;52.832;13.816;2023-01-10T14:43:37;10.85;;;2.50;;
17253;SDS011;32542;52.832;13.816;2023-01-10T14:46:44;7.70;;;2.53;;
17253;SDS011;32542;52.832;13.816;2023-01-10T14:49:50;8.10;;;2.28;;
17253;SDS011;32542;52.832;13.816;2023-01-10T14:52:53;4.32;;;2.00;;
17253;SDS011;32542;52.832;13.816;2023-01-10T14:55:56;10.40;;;2.40;;
17253;SDS011;32542;52.832;13.816;2023-01-10T14:59:01;4.65;;;2.30;;
17253;SDS011;32542;52.832;13.816;2023-01-10T15:02:19;6.78;;;2.20;;
17253;SDS011;32542;52.832;13.816;2023-01-10T15:05:26;4.10;;;2.15;;
17253;SDS011;32542;52.832;13.816;2023-01-10T15:08:31;12.02;;;2.33;;
17253;SDS011;32542;52.832;13.816;2023-01-10T15:11:34;6.50;;;2.65;;
17253;SDS011;32542;52.832;13.816;2023-01-10T15:14:37;9.90;;;2.45;;
17253;SDS011;32542;52.832;13.816;2023-01-10T15:17:40;11.57;;;2.55;;
17253;SDS011;32542;52.832;13.816;2023-01-10T15:20:47;6.30;;;1.90;;
17253;SDS011;32542;52.832;13.816;2023-01-10T15:23:50;4.40;;;2.20;;
17253;SDS011;32542;52.832;13.816;2023-01-10T15:26:54;6.72;;;2.10;;
17253;SDS011;32542;52.832;13.816;2023-01-10T15:29:59;6.45;;;2.10;;
17253;SDS011;32542;52.832;13.816;2023-01-10T15:33:03;6.72;;;2.38;;
17253;SDS011;32542;52.832;13.816;2023-01-10T15:36:11;7.15;;;2.67;;
17253;SDS011;32542;52.832;13.816;2023-01-10T15:39:18;4.57;;;2.50;;
17253;SDS011;32542;52.832;13.816;2023-01-10T15:42:23;5.63;;;1.90;;
17253;SDS011;32542;52.832;13.816;2023-01-10T15:45:27;5.72;;;1.90;;
17253;SDS011;32542;52.832;13.816;2023-01-10T15:48:32;7.18;;;2.25;;
17253;SDS011;32542;52.832;13.816;2023-01-10T15:51:37;8.88;;;2.17;;
17253;SDS011;32542;52.832;13.816;2023-01-10T15:54:41;3.80;;;2.03;;
17253;SDS011;32542;52.832;13.816;2023-01-10T15:57:44;6.45;;;1.80;;
17253;SDS011;32542;52.832;13.816;2023-01-10T16:00:48;3.38;;;1.63;;
17253;SDS011;32542;52.832;13.816;2023-01-10T16:03:53;7.35;;;2.35;;
17253;SDS011;32542;52.832;13.816;2023-01-10T16:07:05;5.03;;;1.92;;
17253;SDS011;32542;52.832;13.816;2023-01-10T16:10:14;8.30;;;1.92;;
17253;SDS011;32542;52.832;13.816;2023-01-10T16:13:20;6.03;;;1.90;;
17253;SDS011;32542;52.832;13.816;2023-01-10T16:16:29;7.45;;;1.98;;
17253;SDS011;32542;52.832;13.816;2023-01-10T16:19:32;6.63;;;2.40;;
17253;SDS011;32542;52.832;13.816;2023-01-10T16:22:36;5.15;;;1.77;;
17253;SDS011;32542;52.832;13.816;2023-01-10T16:25:40;9.63;;;2.10;;
17253;SDS011;32542;52.832;13.816;2023-01-10T16:28:47;6.57;;;1.90;;
17253;SDS011;32542;52.832;13.816;2023-01-10T16:31:50;5.88;;;1.90;;
17253;SDS011;32542;52.832;13.816;2023-01-10T16:34:53;5.85;;;1.80;;
17253;SDS011;32542;52.832;13.816;2023-01-10T16:37:58;4.95;;;1.80;;
17253;SDS011;32542;52.832;13.816;2023-01-10T16:41:02;3.58;;;1.60;;
17253;SDS011;32542;52.832;13.816;2023-01-10T16:44:25;3.03;;;1.77;;
17253;SDS011;32542;52.832;13.816;2023-01-10T16:47:28;3.03;;;1.70;;
17253;SDS011;32542;52.832;13.816;2023-01-10T16:50:31;5.50;;;1.65;;
17253;SDS011;32542;52.832;13.816;2023-01-10T16:53:36;6.18;;;2.10;;
17253;SDS011;32542;52.832;13.816;2023-01-10T16:56:38;13.73;;;2.28;;
17253;SDS011;32542;52.832;13.816;2023-01-10T16:59:41;6.40;;;1.95;;
17253;SDS011;32542;52.832;13.816;2023-01-10T17:02:44;12.77;;;2.33;;
17253;SDS011;32542;52.832;13.816;2023-01-10T17:05:47;8.60;;;1.90;;
17253;SDS011;32542;52.832;13.816;2023-01-10T17:08:52;11.02;;;2.30;;
17253;SDS011;32542;52.832;13.816;2023-01-10T17:11:55;7.55;;;2.50;;
17253;SDS011;32542;52.832;13.816;2023-01-10T17:15:03;11.10;;;2.50;;
17253;SDS011;32542;52.832;13.816;2023-01-10T17:18:08;8.15;;;2.15;;
17253;SDS011;32542;52.832;13.816;2023-01-10T17:21:12;8.73;;;1.90;;
17253;SDS011;32542;52.832;13.816;2023-01-10T17:24:18;5.63;;;1.90;;
17253;SDS011;32542;52.832;13.816;2023-01-10T17:27:21;9.85;;;2.83;;
17253;SDS011;32542;52.832;13.816;2023-01-10T17:30:24;6.18;;;2.08;;
17253;SDS011;32542;52.832;13.816;2023-01-10T17:33:26;8.57;;;1.80;;
17253;SDS011;32542;52.832;13.816;2023-01-10T17:36:29;3.78;;;1.73;;
17253;SDS011;32542;52.832;13.816;2023-01-10T17:39:40;8.13;;;2.08;;
17253;SDS011;32542;52.832;13.816;2023-01-10T17:42:43;8.68;;;2.42;;
17253;SDS011;32542;52.832;13.816;2023-01-10T17:45:47;9.70;;;2.65;;
17253;SDS011;32542;52.832;13.816;2023-01-10T17:48:51;14.30;;;2.00;;
17253;SDS011;32542;52.832;13.816;2023-01-10T17:51:54;11.27;;;2.50;;
17253;SDS011;32542;52.832;13.816;2023-01-10T17:55:00;16.85;;;2.47;;
17253;SDS011;32542;52.832;13.816;2023-01-10T17:58:04;11.38;;;2.13;;
17253;SDS011;32542;52.832;13.816;2023-01-10T18:01:12;8.52;;;2.30;;
17253;SDS011;32542;52.832;13.816;2023-01-10T18:04:19;7.05;;;2.45;;
17253;SDS011;32542;52.832;13.816;2023-01-10T18:07:22;13.93;;;2.53;;
17253;SDS011;32542;52.832;13.816;2023-01-10T18:10:26;8.57;;;2.17;;
17253;SDS011;32542;52.832;13.816;2023-01-10T18:13:29;10.88;;;2.67;;
17253;SDS011;32542;52.832;13.816;2023-01-10T18:16:32;13.85;;;2.65;;
17253;SDS011;32542;52.832;13.816;2023-01-10T18:19:36;5.32;;;2.17;;
17253;SDS011;32542;52.832;13.816;2023-01-10T18:22:39;7.72;;;2.25;;
17253;SDS011;32542;52.832;13.816;2023-01-10T18:26:02;5.15;;;1.95;;
17253;SDS011;32542;52.832;13.816;2023-01-10T18:29:06;7.78;;;1.88;;
17253;SDS011;32542;52.832;13.816;2023-01-10T18:32:09;9.90;;;2.40;;
17253;SDS011;32542;52.832;13.816;2023-01-10T18:35:12;9.40;;;2.75;;